Possible security issue on Nero 8 - Vision

vbimport

#1

I have just attempted to make a backup of a manga film on Nero Vision. It does the re-encoding and then during the burning process I am presented with an error window saying the burning failed etc.

I have kept the error report as there is something a bit fishy on it! Below is the last extract of the report:— What i would like to know is why this is in the field: " HKLM\Software\Microsoft\Windows NT\CurrentVersion\WinLogon "

[22:11:25] NeroVision 22:08:59 #26 Text 0 File Cdrdrv.cpp, Line 10187
[22:11:25] NeroVision ---- Disc Structure: Physical Format Information (00h) ----
[22:11:25] NeroVision Media Type: 0, Layer: 0, Address: 0 (0 h), AGID: 0; Length: 2050
[22:11:25] NeroVision Book Type: DVD-R (2), Part Version: 2.0x (5), Extended Part Version: 0.0 (0)
[22:11:25] NeroVision Disc Size: 120 mm, Maximum Transfer Rate: <not specified> (F h)
[22:11:25] NeroVision Number of Layers: 1, Track Path: Parallel Track Path (PTP), Layer Type: recordable
[22:11:25] NeroVision Linear Density: 0,267 um/bit, Track Density: 0,74 um/track
[22:11:25] NeroVision Starting Physical Sector Number of Data Area: 30000 h (DVD-ROM, DVD-R/-RW, DVD+R/+RW)
[22:11:25] NeroVision Outer Limit of Data Recordable Area: 0 h
[22:11:25] NeroVision Data in Burst Cutting Area (BCA) does not exist
[22:11:25] NeroVision Revision number of maximum recording speed: -
[22:11:25] NeroVision Revision number of minimum recording speed: -
[22:11:25] NeroVision Revision number table of recording speed: - - - - - - -
[22:11:25] NeroVision Class: 0, Extended part version: 0
[22:11:25] NeroVision Start PSN of the Extra Border Zone: 0 h
[22:11:25] NeroVision Start PSN of Physical format information blocks in Extra Border Zone: 0 h
[22:11:25] NeroVision Media Specific [16…783]:
[22:11:25] NeroVision 00 00 00 00 00 00 00 00 - 00 00 00 00 00 00 00 00 …
[22:11:25] NeroVision 00 00 00 00 00 00 00 00 - 00 00 00 00 00 00 00 00 …
[22:11:25] NeroVision 00 00 00 00 00 00 00 00 - 00 00 00 00 00 00 00 00 …
[22:11:25] NeroVision 00 00 00 00 00 00 00 00 - 00 00 00 00 00 00 00 00 …
[22:11:25] NeroVision 00 00 00 00 00 00 00 00 - 00 00 00 00 00 00 00 00 …
[22:11:25] NeroVision 00 00 00 00 00 00 00 00 - 00 00 00 00 00 00 00 00 …
[22:11:25] NeroVision 00 00 00 00 00 00 00 00 - 00 00 00 00 00 00 00 00 …
[22:11:25] NeroVision 00 00 00 00 00 00 00 00 - 00 00 00 00 00 00 00 00 …
[22:11:25] NeroVision 00 00 00 00 00 00 00 00 - 00 00 00 00 00 00 00 00 …
[22:11:25] NeroVision 00 00 00 00 00 00 00 00 - 00 00 00 00 00 00 00 00 …
[22:11:25] NeroVision 00 00 00 00 00 00 00 00 - 00 00 00 00 00 00 00 00 …
[22:11:25] NeroVision 00 00 00 00 00 00 00 00 - 00 00 00 00 00 00 00 00 …
[22:11:25] NeroVision 00 00 00 00 00 00 00 00 - 00 00 00 00 00 00 00 00 …
[22:11:25] NeroVision 00 00 00 00 00 00 00 00 - 00 00 00 00 00 00 00 00 …
[22:11:25] NeroVision 00 00 00 00 00 00 00 00 - 00 00 00 00 00 00 00 00 …
[22:11:25] NeroVision 00 00 00 00 00 00 00 00 - 00 00 00 00 00 00 00 00 …
[22:11:25] NeroVision 00 00 00 00 00 00 00 00 - 00 00 00 00 00 00 00 00 …
[22:11:25] NeroVision 00 00 00 00 00 00 00 00 - 00 00 00 00 00 00 00 00 …
[22:11:25] NeroVision 00 00 00 00 00 00 00 00 - 00 00 00 00 00 00 00 00 …
[22:11:25] NeroVision 00 00 00 00 00 00 00 00 - 00 00 00 00 00 00 00 00 …
[22:11:25] NeroVision 00 00 00 00 00 00 00 00 - 00 00 00 00 00 00 00 00 …
[22:11:25] NeroVision 00 00 00 00 00 00 00 00 - 00 00 00 00 00 00 00 00 …
[22:11:25] NeroVision 00 00 00 00 00 00 00 00 - 00 00 00 00 00 00 00 00 …
[22:11:25] NeroVision 00 00 00 00 00 00 00 00 - 00 00 00 00 00 00 00 00 …
[22:11:25] NeroVision 00 00 00 00 00 00 00 00 - 00 00 00 00 00 00 00 00 …
[22:11:25] NeroVision 00 00 00 00 00 00 00 00 - 00 00 00 00 00 00 00 00 …
[22:11:25] NeroVision 00 00 00 00 00 00 00 00 - 00 00 00 00 00 00 00 00 …
[22:11:25] NeroVision 00 00 00 00 00 00 00 00 - 00 00 00 00 00 00 00 00 …
[22:11:25] NeroVision 00 00 00 00 00 00 00 00 - 00 00 00 00 00 00 00 00 …
[22:11:25] NeroVision 00 00 00 00 00 00 00 00 - 00 00 00 00 00 00 00 00 …
[22:11:25] NeroVision 00 00 00 00 00 00 00 00 - 00 00 00 00 00 00 00 00 …
[22:11:25] NeroVision 15 00 00 00 00 00 00 00 - 00 00 00 00 00 00 00 00 …
[22:11:25] NeroVision 01 40 C1 FD 9E D8 52 00 - 02 87 0D 10 66 78 80 00 .@-²×ÏR…ç…fx…
[22:11:25] NeroVision 03 54 59 47 30 32 00 00 - 04 00 00 00 00 00 00 00 .TYG02…
[22:11:25] NeroVision 05 AA A2 22 22 20 02 00 - 06 08 0E 11 87 78 80 00 .¬ó""…çx…
[22:11:25] NeroVision 07 88 80 00 00 00 00 00 - 08 06 13 0D 10 0E 07 00 …
[22:11:25] NeroVision 09 97 07 0D 0B 78 88 00 - 0A 80 00 00 00 00 10 00 .ù…x…
[22:11:25] NeroVision 0B 06 18 17 85 78 75 00 - 0C D6 89 A8 92 01 20 00 …à xu…Íë¿Æ…
[22:11:25] NeroVision 0D 10 00 D0 00 00 00 00 - 0E 09 21 35 2D 29 1B 00 …ð…!5-)…
[22:11:25] NeroVision 0F 50 1B 2B 1D 97 B5 00 - 10 88 84 00 04 00 04 00 .P.+.ùÁ…ä…
[22:11:25] NeroVision 11 00 00 00 00 00 00 00 - 12 09 2D 35 2D 2B 1A 00 …-5-+…
[22:11:25] NeroVision 13 50 1D 2B 1F 97 B5 00 - 14 88 80 00 00 00 00 00 .P.+.ùÁ…
[22:11:25] NeroVision 15 00 00 00 00 00 00 00 - 00 00 00 00 00 00 00 00 …
[22:11:25] NeroVision 00 00 00 00 00 00 00 00 - 00 00 00 00 00 00 00 00 …
[22:11:25] NeroVision 00 00 00 00 00 00 00 00 - 00 00 00 00 00 00 00 00 …
[22:11:25] NeroVision 00 00 00 00 00 00 00 00 - 00 00 00 00 00 00 00 00 …
[22:11:25] NeroVision 00 00 00 00 00 00 00 00 - 00 00 00 00 00 00 00 00 …
[22:11:25] NeroVision 00 00 00 00 00 00 00 00 - 00 00 00 00 00 00 00 00 …
[22:11:25] NeroVision
[22:11:25] NeroVision 22:08:59 #27 Text 0 File DVDR.cpp, Line 3589
[22:11:25] NeroVision Reserved Track size: 2167040 (211100h, 4232MB) -> return code 0
[22:11:25] NeroVision
[22:11:25] NeroVision 22:08:59 #28 Text 0 File ThreadedTransfer.cpp, Line 269
[22:11:25] NeroVision Pipe memory size 83836800
[22:11:25] NeroVision
[22:11:25] NeroVision 22:11:15 #29 SPTI -1135 File SCSIPassThrough.cpp, Line 214
[22:11:25] NeroVision CdRom2: SCSIStatus(x02) WinError(0) NeroError(-1135)
[22:11:25] NeroVision CDB Data: 0x2A 00 00 06 FC C0 00 00 20 00 00 00
[22:11:25] NeroVision Sense Key: 0x03 (KEY_MEDIUM_ERROR)
[22:11:25] NeroVision Sense Code: 0x0C
[22:11:25] NeroVision Sense Qual: 0x00
[22:11:25] NeroVision Sense Area: 0x70 00 03 00 09 F9 C0 0E 00 00 00 00 0C
[22:11:25] NeroVision Buffer x1a493f40: Len x10000
[22:11:25] NeroVision 0x00 00 01 BA 44 5F 65 DC EC 09 01 89 C3 F8 00 00
[22:11:25] NeroVision 0x01 E0 07 EC 80 00 00 AA 4F 3E 29 25 90 CB 09 83
[22:11:25] NeroVision 0x4B 01 36 03 30 6E C3 02 07 40 05 C0 57 B1 C8 80
[22:11:25] NeroVision
[22:11:25] NeroVision 22:11:15 #30 CDR -1135 File Writer.cpp, Line 306
[22:11:25] NeroVision Write error
[22:11:25] NeroVision I: PIONEER DVD-RW DVR-216
[22:11:25] NeroVision
[22:11:25] NeroVision 22:11:16 #31 Text 0 File DVDR.cpp, Line 3857
[22:11:25] NeroVision EndDAO: Last written address was 457919 (6FCBFh)
[22:11:25] NeroVision
[22:11:25] NeroVision 22:11:16 #32 Phase 38 File APIProgress.cpp, Line 282
[22:11:25] NeroVision Burn process failed at 12x (16,620 KB/s)
[22:11:25] NeroVision
[22:11:25] NeroVision 22:11:16 #33 Text 0 File SCSIPTICommands.cpp, Line 287
[22:11:25] NeroVision SPTIDismountVolume - completed successfully for FSCTL_DISMOUNT_VOLUME
[22:11:25] NeroVision
[22:11:25] NeroVision 22:11:25 #34 Text 0 File Cdrdrv.cpp, Line 11450
[22:11:25] NeroVision DriveLocker: UnLockVolume completed
[22:11:25] NeroVision
[22:11:25] NeroVision 22:11:25 #35 Text 0 File SCSIPTICommands.cpp, Line 450
[22:11:25] NeroVision UnLockMCN - completed sucessfully for IOCTL_STORAGE_MCN_CONTROL
[22:11:25] NeroVision
[22:11:25] NeroVision Existing drivers:
[22:11:25] NeroVision Registry Keys:
[22:11:25] NeroVision HKLM\Software\Microsoft\Windows NT\CurrentVersion\WinLogon
[22:11:25] ExpressUI Burn process failed with status 3
[22:11:33] AMCUIBase Setting ‘ENU’ as Nero File Dialog language

Can anyone explain this and possible why the burn failed? I can provide the whole error report if needed. Thanks